Terminal Aerodrome Forecast
Issued by NWS Goodland, KS

Home | Current Version | Previous Version | Text Only | Print | Product List | Glossary On
Versions: 1 2 3 4 5 6 7 8 9 10 11 12 13 14 15 16 17 18 19 20 21 22 23 24 25 26 27
000
FTUS43 KGLD 190055 AAA
TAFGLD
TAF AMD
KGLD 190055Z 1901/1924 33012KT P6SM BKN090
     FM190500 35008KT 6SM -RA BKN040
     FM190700 34015G25KT 2SM -RA BR OVC010
     FM191200 35023G33KT 5SM -RA BR OVC008
     FM191500 35026G38KT P6SM OVC030
     FM191800 35027G40KT P6SM BKN060=

USA.gov is the U.S. government's official web portal to all federal, state and local government web resources and services.